Página principal
METAR-TAF:

METAR-TAF

Aeroportos :

Aeroporto Internacional do Cairo

Cairo, Egipto

latitude: 30-08N, longitude: 031-24E, altura: 64 m

Observação actual do tempo

O boletim foi feito há 10 minutos, às 03:00 UTC
Vento 5 kt de es-nordeste
Temperatura 25°C
Humidade 79%
Pressão 1011 hPa
Visibilidade 10 km ou mais
sem nuvens abaixo de 1500 metros e sem cumulonimbus

METAR: HECA 240300Z 07005KT CAVOK 25/21 Q1011 NOSIG

Hora: 05:10 (03:10 UTC)

Previsão

O boletim foi feito há 4 horas e 10 minutos, às 23:00 UTC
Previsão válida de 24 às 00 UTC a 25 às 06 UTC
Vento 8 kt de norte
Visibilidade 10 km ou mais
sem nuvens abaixo de 1500 metros e sem cumulonimbus
Temporariamente
de 24 às 02 UTC a 24 às 07 UTC
Vento 3 kt com direcção variável
Temporariamente
de 24 às 15 UTC a 24 às 20 UTC
Vento 10 kt de nor-noroeste com rajadas de 20 kt

TAF: HECA 232300Z 2400/2506 35008KT CAVOK TEMPO 2402/2407 VRB03KT TEMPO 2415/2420 33010G20KT

Observações e previsões do tempo de mais de 4000 aeroportos (mensagens METAR e TAF).

As estações disponíveis são os pontos amarelos e vermelhos sobre o mapa.

Mova o rato sobre o mapa para ver o nome da estação.

Depois clique no ponto para visualizar as observações e previsões meteorológicas.

Para alterar o mapa : clique nos botões verdes com uma cruz preta para aumentar o zoom; no botão verde com uma pitada de zoom; ou nas setas verdes para mapas adjacentes.


METAR-TAF: